Météo Cheval Rigon

 

Relevés d'aujourd'hui



 

7/4/20
Time         Wind Dir   Wind Spd  Wind Gust   Humidity       Temp   Tot Rain Wind Chill  Dew Point   Barom SL Humidity R Temp Out R Tot Rain R   WindCh R   Dew Pt R SL Barom R Temp Out H Temp Out L  DailyRain   HourRain   24HrRain   RainRate  MonthRain
                          km/hr      km/hr          %         C         mm         C         C         mb       %/hr      C/hr      mm/hr      C/hr      C/hr      mm/hr         C         C         mm         mm         mm      mm/hr         mm
0:00              244          0          3         61       10.5     120.80       10.5        3.3    1025.07        2.7      -0.83      0.000      -0.83      -0.04      0.507       10.5       10.5       0.00       0.00       0.00      0.000       0.00
0:15              251          0          3         67       10.0     120.80       10.0        4.2    1025.17        7.4      -1.09      0.000      -1.09       0.73      0.484       10.5       10.0       0.00       0.00       0.00      0.000       0.00
0:30              252          2          6         68        9.8     120.80        9.8        4.2    1025.14        6.6      -1.00      0.000      -1.00       0.59      0.341       10.5        9.8       0.00       0.00       0.00      0.000       0.00
0:45              252          0          2         69        9.8     120.80        9.8        4.4    1025.34        5.8      -0.82      0.000      -0.82       0.57      0.439       10.5        9.7       0.00       0.00       0.00      0.000       0.00
1:00              252          0          0         69        9.3     120.80        9.3        3.9    1025.34        4.5      -1.05      0.000      -1.05       0.04      0.339       10.5        9.3       0.00       0.00       0.00      0.000       0.00
1:15              252          0          0         70        8.9     120.80        8.9        3.8    1025.41        4.3      -1.16      0.000      -1.16      -0.13      0.324       10.5        8.9       0.00       0.00       0.00      0.000       0.00
1:30              252          0          0         68        9.2     120.80        9.2        3.6    1025.41        1.5      -0.70      0.000      -0.70      -0.28      0.258       10.5        8.9       0.00       0.00       0.00      0.000       0.00
1:45              252          0          0         63        9.4     120.80        9.4        2.8    1025.51       -3.2      -0.30      0.000      -0.30      -0.93      0.290       10.5        8.9       0.00       0.00       0.00      0.000       0.00
2:00              252          0          0         61        9.3     120.80        9.3        2.2    1025.61       -4.3      -0.33      0.000      -0.33      -1.23      0.319       10.5        8.9       0.00       0.00       0.00      0.000       0.00
2:15              123          0          2         58        9.5     120.80        9.5        1.7    1025.64       -5.9      -0.11      0.000      -0.11      -1.43      0.277       10.5        8.9       0.00       0.00       0.00      0.000       0.00
2:30              123          0          0         57        9.6     120.80        9.6        1.5    1025.71       -5.5      -0.03      0.000      -0.03      -1.29      0.273       10.5        8.9       0.00       0.00       0.00      0.000       0.00
2:45              123          0          0         57        9.4     120.80        9.4        1.4    1025.71       -4.3      -0.13      0.000      -0.13      -1.10      0.211       10.5        8.9       0.00       0.00       0.00      0.000       0.00
3:00              187          0          3         57        9.5     120.80        9.5        1.4    1025.75       -3.4      -0.05      0.000      -0.05      -0.81      0.206       10.5        8.9       0.00       0.00       0.00      0.000       0.00
3:15              185          0          3         58        9.6     120.80        9.6        1.7    1025.71       -1.8       0.02      0.000       0.02      -0.37      0.140       10.5        8.9       0.00       0.00       0.00      0.000       0.00
3:30              192          0          3         57        9.8     120.80        9.8        1.7    1025.78       -2.2       0.26      0.000       0.26      -0.27      0.166       10.5        8.9       0.00       0.00       0.00      0.000       0.00
3:45              192          0          2         57       10.1     120.80       10.1        1.9    1025.78       -1.7       0.40      0.000       0.40      -0.02      0.122       10.5        8.9       0.00       0.00       0.00      0.000       0.00
4:00              192          0          0         58        9.8     120.80        9.8        1.9    1025.71       -0.3       0.07      0.000       0.07       0.00      0.037       10.5        8.9       0.00       0.00       0.00      0.000       0.00
4:15              192          0          2         58        9.6     120.80        9.6        1.8    1025.75       -0.3      -0.08      0.000      -0.08      -0.13      0.056       10.5        8.9       0.00       0.00       0.00      0.000       0.00
4:30              192          0          2         57       10.0     120.80       10.0        1.9    1025.75       -1.1       0.28      0.000       0.28       0.01      0.048       10.5        8.9       0.00       0.00       0.00      0.000       0.00
4:45              192          0          2         56       10.0     120.80       10.0        1.6    1025.75       -1.7       0.22      0.000       0.22      -0.21      0.045       10.5        8.9       0.00       0.00       0.00      0.000       0.00
5:00              192          2          2         59        9.2     120.80        9.2        1.6    1025.68        1.4      -0.53      0.000      -0.53      -0.17     -0.027       10.5        8.9       0.00       0.00       0.00      0.000       0.00
5:15              192          0          2         57        9.8     120.80        9.8        1.7    1025.68       -0.7       0.13      0.000       0.13      -0.03     -0.021       10.5        8.9       0.00       0.00       0.00      0.000       0.00
5:30              192          0          2         57        9.9     120.80        9.9        1.8    1025.71       -0.5       0.15      0.000       0.15       0.03      0.011       10.5        8.9       0.00       0.00       0.00      0.000       0.00
5:45              192          0          2         57        9.8     120.80        9.8        1.7    1025.68       -0.4       0.08      0.000       0.08      -0.01     -0.033       10.5        8.9       0.00       0.00       0.00      0.000       0.00
6:00              192          0          3         57        9.8     120.80        9.8        1.7    1025.75       -0.3       0.00      0.000       0.00      -0.06      0.020       10.5        8.9       0.00       0.00       0.00      0.000       0.00
6:15              192          0          2         58        9.5     120.80        9.5        1.7    1025.71        0.7      -0.25      0.000      -0.25      -0.06     -0.019       10.5        8.9       0.00       0.00       0.00      0.000       0.00
6:30              192          0          2         59        9.3     120.80        9.3        1.7    1025.61        1.5      -0.33      0.000      -0.33       0.05     -0.107       10.5        8.9       0.00       0.00       0.00      0.000       0.00
6:45              106          2          6         61        8.7     120.80        8.7        1.6    1025.75        3.0      -0.82      0.000      -0.82      -0.06      0.032       10.5        8.7       0.00       0.00       0.00      0.000       0.00
7:00              122          3          5         63        8.5     120.80        8.5        1.9    1025.71        4.2      -0.85      0.000      -0.85       0.16      0.001       10.5        8.5       0.00       0.00       0.00      0.000       0.00
7:15              117          0          5         62        8.3     120.80        8.3        1.5    1025.78        2.3      -0.79      0.000      -0.78      -0.20      0.067       10.5        8.2       0.00       0.00       0.00      0.000       0.00
7:30              101          0          5         59        9.2     120.80        9.2        1.6    1025.95       -0.8       0.12      0.000       0.13      -0.07      0.195       10.5        8.2       0.00       0.00       0.00      0.000       0.00
7:45               98          0          5         56        9.6     120.80        9.6        1.3    1026.05       -3.4       0.46      0.000       0.47      -0.37      0.243       10.5        8.2       0.00       0.00       0.00      0.000       0.00
8:00              101          0          2         58        9.6     120.80        9.6        1.8    1026.05       -1.0       0.35      0.000       0.36       0.11      0.193       10.5        8.2       0.00       0.00       0.00      0.000       0.00
8:15               97          0          3         55       10.2     120.80       10.2        1.6    1026.08       -3.4       0.83      0.000       0.83      -0.05      0.178       10.5        8.2       0.00       0.00       0.00      0.000       0.00
8:30               97          0          0         57       10.5     120.80       10.5        2.3    1026.29       -0.8       0.88      0.000       0.88       0.64      0.311       10.5        8.2       0.00       0.00       0.00      0.000       0.00
8:45               97          0          2         58       10.5     120.80       10.5        2.6    1026.42        0.0       0.69      0.000       0.69       0.66      0.361       10.5        8.2       0.00       0.00       0.00      0.000       0.00
9:00               97          0          0         58       11.0     120.80       11.0        3.1    1026.32        0.0       0.99      0.000       0.99       0.93      0.187       11.0        8.2       0.00       0.00       0.00      0.000       0.00
9:15              169          0          3         59       12.1     120.80       12.1        4.3    1026.36        0.9       1.70      0.000       1.70       1.82      0.175       12.1        8.2       0.00       0.00       0.00      0.000       0.00
9:30              169          0          2         57       12.9     120.80       12.9        4.6    1026.36       -1.3       2.06      0.000       2.06       1.62      0.136       12.9        8.2       0.00       0.00       0.00      0.000       0.00
9:45              169          0          0         54       13.8     120.80       13.8        4.6    1026.36       -4.0       2.39      0.000       2.39       1.23      0.099       13.8        8.2       0.00       0.00       0.00      0.000       0.00
10:00             169          0          0         54       14.6     120.80       14.6        5.4    1026.32       -3.2       2.54      0.000       2.54       1.56      0.045       14.6        8.2       0.00       0.00       0.00      0.000       0.00
10:15             171          2          2         49       15.4     120.80       15.4        4.8    1026.29       -6.7       2.77      0.000       2.77       0.77      0.010       15.4        8.2       0.00       0.00       0.00      0.000       0.00
10:30             296          0          5         48       15.8     120.80       15.8        4.8    1026.29       -6.0       2.43      0.000       2.44       0.64      0.014       15.8        8.2       0.00       0.00       0.00      0.000       0.00
10:45             333          0          5         51       16.3     120.80       16.3        6.1    1026.29       -2.2       2.34      0.000       2.34       1.63      0.009       16.3        8.2       0.00       0.00       0.00      0.000       0.00
11:00             344          3          6         47       16.8     120.80       16.8        5.4    1026.29       -5.0       2.26      0.000       2.26       0.69      0.003       16.8        8.2       0.00       0.00       0.00      0.000       0.00
11:15             105          3          6         48       18.0     120.80       18.0        6.8    1026.22       -3.1       2.88      0.000       2.88       1.81     -0.062       18.0        8.2       0.00       0.00       0.00      0.000       0.00
11:30             123          3         11         41       18.9     120.80       18.9        5.4    1026.29       -8.4       3.04      0.000       3.04       0.17      0.011       18.9        8.2       0.00       0.00       0.00      0.000       0.00
11:45              91          3         10         43       19.2     120.80       19.2        6.3    1026.15       -4.7       2.55      0.000       2.55       0.94     -0.110       19.2        8.2       0.00       0.00       0.00      0.000       0.00
12:00             144          3         10         42       19.4     120.80       19.4        6.2    1026.08       -4.2       2.22      0.000       2.22       0.75     -0.147       19.4        8.2       0.00       0.00       0.00      0.000       0.00
12:15             107          6         19         38       19.2     120.80       19.2        4.5    1025.92       -6.8       1.47      0.000       1.47      -0.92     -0.258       19.4        8.2       0.00       0.00       0.00      0.000       0.00
12:30             139          3         13         39       19.4     120.80       19.4        5.1    1025.85       -4.7       1.40      0.000       1.40      -0.26     -0.257       19.4        8.2       0.00       0.00       0.00      0.000       0.00
12:45              96          8         21         39       19.5     120.80       19.5        5.2    1025.75       -3.7       1.12      0.000       1.12      -0.20     -0.287       19.6        8.2       0.00       0.00       0.00      0.000       0.00
13:00              86          3         14         40       19.5     120.80       19.5        5.6    1025.58       -2.2       0.86      0.000       0.86       0.11     -0.369       19.6        8.2       0.00       0.00       0.00      0.000       0.00
13:15              64          8         14         40       19.8     120.80       19.8        5.9    1025.41       -1.8       0.97      0.000       0.97       0.31     -0.437       19.8        8.2       0.00       0.00       0.00      0.000       0.00
13:30              99          8         14         40       20.1     120.80       20.1        6.1    1025.27       -1.3       0.96      0.000       0.96       0.45     -0.466       20.1        8.2       0.00       0.00       0.00      0.000       0.00
13:45             101          3         16         37       20.0     120.80       20.0        4.9    1025.17       -3.8       0.69      0.000       0.69      -0.75     -0.454       20.2        8.2       0.00       0.00       0.00      0.000       0.00
14:00              84         14         16         36       19.9     120.80       19.9        4.4    1025.07       -4.4       0.50      0.000       0.50      -1.15     -0.446       20.2        8.2       0.00       0.00       0.00      0.000       0.00
14:15             102          3         14         38       20.1     120.80       20.1        5.4    1024.90       -1.8       0.54      0.000       0.54      -0.15     -0.497       20.2        8.2       0.00       0.00       0.00      0.000       0.00
14:30             144          6         11         36       20.6     120.80       20.6        5.0    1024.73       -3.6       0.80      0.000       0.80      -0.63     -0.534       20.6        8.2       0.00       0.00       0.00      0.000       0.00
14:45              57          5         18         39       20.2     120.80       20.2        5.8    1024.46       -0.1       0.34      0.000       0.34       0.29     -0.665       20.6        8.2       0.00       0.00       0.00      0.000       0.00
15:00              94         10         16         37       20.1     120.80       20.1        4.9    1024.43       -2.0       0.09      0.000       0.09      -0.64     -0.553       20.6        8.2       0.00       0.00       0.00      0.000       0.00
15:15              82         10         16         40       20.1     120.80       20.1        6.1    1024.32        1.2       0.08      0.000       0.08       0.52     -0.519       20.6        8.2       0.00       0.00       0.00      0.000       0.00
15:30              80          5         13         38       20.8     120.80       20.8        6.0    1024.19       -1.1       0.69      0.000       0.69       0.24     -0.517       20.8        8.2       0.00       0.00       0.00      0.000       0.00
15:45             114         14         19         37       20.6     120.80       20.6        5.4    1023.99       -2.0       0.37      0.000       0.37      -0.41     -0.594       20.9        8.2       0.00       0.00       0.00      0.000       0.00
16:00             116          6         16         41       20.6     120.80       20.6        6.9    1023.82        2.0       0.31      0.000       0.31       1.00     -0.620       20.9        8.2       0.00       0.00       0.00      0.000       0.00
16:15              86         10         21         37       20.7     120.80       20.7        5.5    1023.55       -1.8       0.30      0.000       0.30      -0.42     -0.735       20.9        8.2       0.00       0.00       0.00      0.000       0.00
16:30              81          5         18         37       20.8     120.80       20.8        5.6    1023.55       -1.3       0.32      0.000       0.32      -0.20     -0.582       20.9        8.2       0.00       0.00       0.00      0.000       0.00
16:45              76          5         11         38       20.9     120.80       20.9        6.1    1023.55       -0.2       0.40      0.000       0.40       0.29     -0.451       20.9        8.2       0.00       0.00       0.00      0.000       0.00
17:00              49          5         18         35       20.7     120.80       20.7        4.7    1023.41       -3.1       0.06      0.000       0.06      -1.13     -0.467       20.9        8.2       0.00       0.00       0.00      0.000       0.00
17:15              85          2         16         37       20.8     120.80       20.8        5.6    1023.27       -0.8       0.16      0.000       0.16      -0.13     -0.491       20.9        8.2       0.00       0.00       0.00      0.000       0.00
17:30              85          3         11         38       20.8     120.80       20.8        6.0    1023.21        0.3       0.12      0.000       0.12       0.24     -0.442       20.9        8.2       0.00       0.00       0.00      0.000       0.00
17:45             109          3         11         38       20.5     120.80       20.5        5.7    1023.10        0.3      -0.17      0.000      -0.17      -0.01     -0.442       20.9        8.2       0.00       0.00       0.00      0.000       0.00
18:00              95         11         13         39       20.3     120.80       20.3        5.9    1023.17        1.0      -0.35      0.000      -0.35       0.06     -0.287       20.9        8.2       0.00       0.00       0.00      0.000       0.00
18:15             103          5         14         40       19.3     120.80       19.3        5.4    1023.10        1.7      -1.12      0.000      -1.12      -0.37     -0.280       20.9        8.2       0.00       0.00       0.00      0.000       0.00
18:30             107          8         11         41       19.4     120.80       19.4        5.8    1023.07        2.1      -0.84      0.000      -0.84       0.02     -0.245       20.9        8.2       0.00       0.00       0.00      0.000       0.00
18:45              96          3         13         43       19.1     120.80       19.1        6.2    1023.21        3.6      -0.95      0.000      -0.95       0.42     -0.064       20.9        8.2       0.00       0.00       0.00      0.000       0.00
19:00             114          3         11         44       18.9     120.80       18.9        6.4    1023.24        3.8      -0.88      0.000      -0.88       0.55     -0.022       20.9        8.2       0.00       0.00       0.00      0.000       0.00
19:15              85          3          8         44       18.6     120.80       18.6        6.1    1023.27        3.2      -0.93      0.000      -0.93       0.28      0.017       20.9        8.2       0.00       0.00       0.00      0.000       0.00
19:30              90          3          8         43       18.2     120.80       18.2        5.4    1023.17        1.7      -1.12      0.000      -1.12      -0.41     -0.076       20.9        8.2       0.00       0.00       0.00      0.000       0.00
19:45             125          3          8         45       17.6     120.80       17.6        5.5    1023.34        3.1      -1.37      0.000      -1.37      -0.19      0.094       20.9        8.2       0.00       0.00       0.00      0.000       0.00
20:00             125          0         10         46       17.1     120.80       17.1        5.4    1023.48        3.4      -1.50      0.000      -1.50      -0.23      0.198       20.9        8.2       0.00       0.00       0.00      0.000       0.00
20:15              95          5         10         47       16.7     120.80       16.7        5.3    1023.68        3.6      -1.56      0.000      -1.56      -0.23      0.334       20.9        8.2       0.00       0.00       0.00      0.000       0.00
20:30              98          5          8         47       16.3     120.80       16.3        5.0    1023.71        2.9      -1.51      0.000      -1.51      -0.44      0.294       20.9        8.2       0.00       0.00       0.00      0.000       0.00
20:45             126          3         10         49       15.9     120.80       15.9        5.2    1023.88        4.0      -1.57      0.000      -1.57      -0.17      0.385       20.9        8.2       0.00       0.00       0.00      0.000       0.00
21:00              92          2         10         50       15.4     120.80       15.4        5.1    1024.09        4.1      -1.62      0.000      -1.62      -0.21      0.478       20.9        8.2       0.00       0.00       0.00      0.000       0.00
21:15              96          3         10         52       14.7     120.80       14.7        4.9    1024.09        4.9      -1.94      0.000      -1.94      -0.30      0.368       20.9        8.2       0.00       0.00       0.00      0.000       0.00
21:30              86          3          6         55       13.9     120.80       13.9        5.1    1024.29        6.6      -2.17      0.000      -2.17      -0.11      0.469       20.9        8.2       0.00       0.00       0.00      0.000       0.00
21:45              69          0          5         55       13.6     120.80       13.6        4.7    1024.29        5.1      -1.96      0.000      -1.96      -0.35      0.370       20.9        8.2       0.00       0.00       0.00      0.000       0.00
22:00             177          0          3         52       14.1     120.80       14.1        4.4    1024.59        1.4      -1.06      0.000      -1.06      -0.54      0.551       20.9        8.2       0.00       0.00       0.00      0.000       0.00

 


 

 

 

Retour accueil